sensor_id;sensor_type;location;lat;lon;timestamp;pressure;altitude;pressure_sealevel;temperature;humidity
59055;BME280;44845;51.444;7.460;2023-03-14T00:01:57;97323.72;;;10.35;72.33
59055;BME280;44845;51.444;7.460;2023-03-14T00:04:22;97318.47;;;10.35;72.49
59055;BME280;44845;51.444;7.460;2023-03-14T00:06:47;97307.31;;;10.31;72.28
59055;BME280;44845;51.444;7.460;2023-03-14T00:09:15;97302.75;;;10.35;71.75
59055;BME280;44845;51.444;7.460;2023-03-14T00:11:40;97296.75;;;10.33;72.34
59055;BME280;44845;51.444;7.460;2023-03-14T00:14:06;97289.19;;;10.27;72.35
59055;BME280;44845;51.444;7.460;2023-03-14T00:16:31;97279.63;;;10.25;72.55
59055;BME280;44845;51.444;7.460;2023-03-14T00:18:58;97271.63;;;10.29;72.19
59055;BME280;44845;51.444;7.460;2023-03-14T00:21:24;97278.41;;;10.33;71.57
59055;BME280;44845;51.444;7.460;2023-03-14T00:23:49;97278.59;;;10.30;72.12
59055;BME280;44845;51.444;7.460;2023-03-14T00:26:17;97261.16;;;10.29;72.04
59055;BME280;44845;51.444;7.460;2023-03-14T00:28:43;97269.88;;;10.29;72.25
59055;BME280;44845;51.444;7.460;2023-03-14T00:31:11;97273.34;;;10.30;71.97
59055;BME280;44845;51.444;7.460;2023-03-14T00:33:37;97290.59;;;10.34;72.27
59055;BME280;44845;51.444;7.460;2023-03-14T00:36:05;97304.06;;;10.26;72.00
59055;BME280;44845;51.444;7.460;2023-03-14T00:38:31;97310.28;;;10.23;72.34
59055;BME280;44845;51.444;7.460;2023-03-14T00:40:58;97315.53;;;10.23;72.31
59055;BME280;44845;51.444;7.460;2023-03-14T00:43:23;97320.91;;;10.20;71.92
59055;BME280;44845;51.444;7.460;2023-03-14T00:45:52;97315.63;;;10.22;72.27
59055;BME280;44845;51.444;7.460;2023-03-14T00:48:19;97324.31;;;10.22;71.96
59055;BME280;44845;51.444;7.460;2023-03-14T00:50:45;97303.09;;;10.09;72.55
59055;BME280;44845;51.444;7.460;2023-03-14T00:53:11;97287.94;;;10.16;72.46
59055;BME280;44845;51.444;7.460;2023-03-14T00:55:40;97279.44;;;10.11;72.26
59055;BME280;44845;51.444;7.460;2023-03-14T00:58:06;97277.47;;;10.16;72.67
59055;BME280;44845;51.444;7.460;2023-03-14T01:00:31;97283.19;;;10.24;72.37
59055;BME280;44845;51.444;7.460;2023-03-14T01:02:56;97282.56;;;10.19;72.24
59055;BME280;44845;51.444;7.460;2023-03-14T01:05:22;97281.69;;;10.19;72.33
59055;BME280;44845;51.444;7.460;2023-03-14T01:07:48;97282.41;;;10.22;71.57
59055;BME280;44845;51.444;7.460;2023-03-14T01:10:13;97278.72;;;10.27;71.82
59055;BME280;44845;51.444;7.460;2023-03-14T01:12:38;97272.75;;;10.23;72.04
59055;BME280;44845;51.444;7.460;2023-03-14T01:15:04;97278.50;;;10.31;71.63
59055;BME280;44845;51.444;7.460;2023-03-14T01:17:30;97291.28;;;10.38;72.22
59055;BME280;44845;51.444;7.460;2023-03-14T01:19:55;97312.25;;;10.38;74.09
59055;BME280;44845;51.444;7.460;2023-03-14T01:22:20;97335.78;;;10.39;75.33
59055;BME280;44845;51.444;7.460;2023-03-14T01:24:46;97349.38;;;10.09;77.51
59055;BME280;44845;51.444;7.460;2023-03-14T01:27:12;97360.97;;;10.03;78.09
59055;BME280;44845;51.444;7.460;2023-03-14T01:29:38;97349.66;;;10.02;78.63
59055;BME280;44845;51.444;7.460;2023-03-14T01:32:03;97352.28;;;10.02;78.38
59055;BME280;44845;51.444;7.460;2023-03-14T01:34:29;97341.09;;;9.99;78.21
59055;BME280;44845;51.444;7.460;2023-03-14T01:36:54;97350.06;;;9.93;77.67
59055;BME280;44845;51.444;7.460;2023-03-14T01:39:19;97346.66;;;9.91;77.69
59055;BME280;44845;51.444;7.460;2023-03-14T01:41:45;97345.97;;;9.87;78.40
59055;BME280;44845;51.444;7.460;2023-03-14T01:44:11;97338.34;;;9.83;78.62
59055;BME280;44845;51.444;7.460;2023-03-14T01:46:44;97327.09;;;9.80;78.98
59055;BME280;44845;51.444;7.460;2023-03-14T01:49:39;97311.44;;;9.79;78.98
59055;BME280;44845;51.444;7.460;2023-03-14T01:52:10;97298.69;;;9.71;78.66
59055;BME280;44845;51.444;7.460;2023-03-14T01:54:38;97302.25;;;9.70;78.83
59055;BME280;44845;51.444;7.460;2023-03-14T01:57:16;97307.53;;;9.68;78.96
59055;BME280;44845;51.444;7.460;2023-03-14T01:59:50;97304.91;;;9.68;78.85
59055;BME280;44845;51.444;7.460;2023-03-14T02:02:17;97300.81;;;9.63;79.28
59055;BME280;44845;51.444;7.460;2023-03-14T02:04:43;97298.47;;;9.56;79.28
59055;BME280;44845;51.444;7.460;2023-03-14T02:07:18;97288.78;;;9.58;79.02
59055;BME280;44845;51.444;7.460;2023-03-14T02:09:45;97288.78;;;9.58;79.51
59055;BME280;44845;51.444;7.460;2023-03-14T02:12:13;97279.47;;;9.53;79.59
59055;BME280;44845;51.444;7.460;2023-03-14T02:14:38;97282.72;;;9.58;79.28
59055;BME280;44845;51.444;7.460;2023-03-14T02:17:06;97281.28;;;9.51;79.50
59055;BME280;44845;51.444;7.460;2023-03-14T02:19:50;97280.84;;;9.41;79.52
59055;BME280;44845;51.444;7.460;2023-03-14T02:22:21;97294.84;;;9.40;79.51
59055;BME280;44845;51.444;7.460;2023-03-14T02:27:23;97286.75;;;9.25;80.37
59055;BME280;44845;51.444;7.460;2023-03-14T02:29:55;97293.16;;;9.39;80.25
59055;BME280;44845;51.444;7.460;2023-03-14T02:32:23;97279.91;;;9.42;80.11
59055;BME280;44845;51.444;7.460;2023-03-14T02:34:54;97282.53;;;9.42;80.03
59055;BME280;44845;51.444;7.460;2023-03-14T02:37:22;97278.72;;;9.49;79.84
59055;BME280;44845;51.444;7.460;2023-03-14T02:39:49;97271.81;;;9.48;80.04
59055;BME280;44845;51.444;7.460;2023-03-14T02:42:15;97285.69;;;9.50;80.23
59055;BME280;44845;51.444;7.460;2023-03-14T02:44:53;97278.03;;;9.45;80.20
59055;BME280;44845;51.444;7.460;2023-03-14T02:47:22;97285.81;;;9.47;79.93
59055;BME280;44845;51.444;7.460;2023-03-14T02:49:53;97285.81;;;9.47;80.06
59055;BME280;44845;51.444;7.460;2023-03-14T02:52:23;97277.06;;;9.48;80.03
59055;BME280;44845;51.444;7.460;2023-03-14T02:54:48;97279.72;;;9.46;80.13
59055;BME280;44845;51.444;7.460;2023-03-14T02:57:13;97288.41;;;9.47;80.04
59055;BME280;44845;51.444;7.460;2023-03-14T02:59:38;97273.50;;;9.49;80.10
59055;BME280;44845;51.444;7.460;2023-03-14T03:02:04;97274.47;;;9.46;80.12
59055;BME280;44845;51.444;7.460;2023-03-14T03:04:29;97276.47;;;9.41;80.64
59055;BME280;44845;51.444;7.460;2023-03-14T03:06:54;97266.84;;;9.42;79.87
59055;BME280;44845;51.444;7.460;2023-03-14T03:09:20;97281.72;;;9.41;80.24
59055;BME280;44845;51.444;7.460;2023-03-14T03:11:45;97266.34;;;9.33;79.80
59055;BME280;44845;51.444;7.460;2023-03-14T03:14:10;97264.38;;;9.39;79.81
59055;BME280;44845;51.444;7.460;2023-03-14T03:16:36;97263.44;;;9.40;80.21
59055;BME280;44845;51.444;7.460;2023-03-14T03:19:01;97251.31;;;9.39;80.11
59055;BME280;44845;51.444;7.460;2023-03-14T03:21:27;97265.00;;;9.44;80.11
59055;BME280;44845;51.444;7.460;2023-03-14T03:23:52;97258.22;;;9.40;80.23
59055;BME280;44845;51.444;7.460;2023-03-14T03:26:17;97259.06;;;9.40;80.05
59055;BME280;44845;51.444;7.460;2023-03-14T03:28:43;97248.03;;;9.33;80.01
59055;BME280;44845;51.444;7.460;2023-03-14T03:31:09;97248.81;;;9.35;79.96
59055;BME280;44845;51.444;7.460;2023-03-14T03:33:36;97248.69;;;9.39;79.80
59055;BME280;44845;51.444;7.460;2023-03-14T03:36:02;97247.97;;;9.35;79.87
59055;BME280;44845;51.444;7.460;2023-03-14T03:38:27;97242.81;;;9.33;80.14
59055;BME280;44845;51.444;7.460;2023-03-14T03:40:52;97249.47;;;9.41;79.59
59055;BME280;44845;51.444;7.460;2023-03-14T03:43:18;97242.66;;;9.37;79.12
59055;BME280;44845;51.444;7.460;2023-03-14T03:45:43;97237.09;;;9.44;79.61
59055;BME280;44845;51.444;7.460;2023-03-14T03:48:08;97236.22;;;9.44;79.25
59055;BME280;44845;51.444;7.460;2023-03-14T03:50:34;97227.75;;;9.39;79.49
59055;BME280;44845;51.444;7.460;2023-03-14T03:52:59;97230.94;;;9.45;79.76
59055;BME280;44845;51.444;7.460;2023-03-14T03:55:25;97228.25;;;9.47;79.41
59055;BME280;44845;51.444;7.460;2023-03-14T03:57:51;97235.63;;;9.39;79.59
59055;BME280;44845;51.444;7.460;2023-03-14T04:00:17;97232.84;;;9.42;79.50
59055;BME280;44845;51.444;7.460;2023-03-14T04:02:42;97238.84;;;9.44;79.69
59055;BME280;44845;51.444;7.460;2023-03-14T04:05:08;97237.03;;;9.46;79.99
59055;BME280;44845;51.444;7.460;2023-03-14T04:07:33;97249.25;;;9.45;79.81
59055;BME280;44845;51.444;7.460;2023-03-14T04:09:59;97240.56;;;9.45;80.32
59055;BME280;44845;51.444;7.460;2023-03-14T04:12:24;97246.06;;;9.39;80.38
59055;BME280;44845;51.444;7.460;2023-03-14T04:14:49;97251.75;;;9.08;81.04
59055;BME280;44845;51.444;7.460;2023-03-14T04:17:15;97239.84;;;9.01;81.18
59055;BME280;44845;51.444;7.460;2023-03-14T04:19:40;97238.66;;;9.08;81.71
59055;BME280;44845;51.444;7.460;2023-03-14T04:22:07;97231.59;;;9.10;81.46
59055;BME280;44845;51.444;7.460;2023-03-14T04:24:32;97235.50;;;9.21;80.98
59055;BME280;44845;51.444;7.460;2023-03-14T04:26:58;97228.22;;;9.08;81.00
59055;BME280;44845;51.444;7.460;2023-03-14T04:29:23;97237.72;;;9.09;80.66
59055;BME280;44845;51.444;7.460;2023-03-14T04:31:48;97229.41;;;9.01;81.17
59055;BME280;44845;51.444;7.460;2023-03-14T04:34:14;97235.41;;;9.03;81.37
59055;BME280;44845;51.444;7.460;2023-03-14T04:36:39;97238.53;;;9.11;81.07
59055;BME280;44845;51.444;7.460;2023-03-14T04:39:04;97223.50;;;9.17;80.96
59055;BME280;44845;51.444;7.460;2023-03-14T04:41:30;97224.53;;;9.12;81.30
59055;BME280;44845;51.444;7.460;2023-03-14T04:43:55;97213.88;;;9.17;81.23
59055;BME280;44845;51.444;7.460;2023-03-14T04:46:21;97219.03;;;9.19;81.04
59055;BME280;44845;51.444;7.460;2023-03-14T04:48:46;97211.13;;;9.20;81.17
59055;BME280;44845;51.444;7.460;2023-03-14T04:51:12;97204.13;;;9.21;81.34
59055;BME280;44845;51.444;7.460;2023-03-14T04:53:37;97203.19;;;9.22;81.28
59055;BME280;44845;51.444;7.460;2023-03-14T04:56:02;97197.28;;;9.18;81.35
59055;BME280;44845;51.444;7.460;2023-03-14T04:58:28;97199.81;;;9.20;81.42
59055;BME280;44845;51.444;7.460;2023-03-14T05:00:53;97189.34;;;9.20;81.68
59055;BME280;44845;51.444;7.460;2023-03-14T05:03:19;97190.94;;;9.24;81.58
59055;BME280;44845;51.444;7.460;2023-03-14T05:05:45;97173.44;;;9.24;81.63
59055;BME280;44845;51.444;7.460;2023-03-14T05:08:10;97178.75;;;9.23;81.80
59055;BME280;44845;51.444;7.460;2023-03-14T05:10:36;97175.38;;;9.21;81.73
59055;BME280;44845;51.444;7.460;2023-03-14T05:13:02;97175.22;;;9.24;81.56
59055;BME280;44845;51.444;7.460;2023-03-14T05:15:27;97176.91;;;9.25;81.61
59055;BME280;44845;51.444;7.460;2023-03-14T05:17:53;97170.13;;;9.21;81.79
59055;BME280;44845;51.444;7.460;2023-03-14T05:20:19;97163.91;;;9.23;81.64
59055;BME280;44845;51.444;7.460;2023-03-14T05:22:45;97168.28;;;9.23;81.80
59055;BME280;44845;51.444;7.460;2023-03-14T05:25:10;97170.81;;;9.24;81.81
59055;BME280;44845;51.444;7.460;2023-03-14T05:27:35;97177.63;;;9.29;81.64
59055;BME280;44845;51.444;7.460;2023-03-14T05:30:02;97174.38;;;9.23;81.90
59055;BME280;44845;51.444;7.460;2023-03-14T05:32:28;97164.78;;;9.24;82.05
59055;BME280;44845;51.444;7.460;2023-03-14T05:34:53;97172.53;;;9.26;81.80
59055;BME280;44845;51.444;7.460;2023-03-14T05:37:23;97167.56;;;9.19;82.24
59055;BME280;44845;51.444;7.460;2023-03-14T05:39:48;97163.06;;;9.23;81.97
59055;BME280;44845;51.444;7.460;2023-03-14T05:42:14;97168.16;;;9.26;81.88
59055;BME280;44845;51.444;7.460;2023-03-14T05:44:39;97157.63;;;9.28;81.74
59055;BME280;44845;51.444;7.460;2023-03-14T05:47:04;97155.78;;;9.30;81.72
59055;BME280;44845;51.444;7.460;2023-03-14T05:49:30;97146.47;;;9.24;81.98
59055;BME280;44845;51.444;7.460;2023-03-14T05:51:55;97155.31;;;9.21;82.12
59055;BME280;44845;51.444;7.460;2023-03-14T05:54:20;97160.31;;;9.26;82.06
59055;BME280;44845;51.444;7.460;2023-03-14T05:56:46;97147.38;;;9.23;82.26
59055;BME280;44845;51.444;7.460;2023-03-14T05:59:11;97152.47;;;9.26;82.16
59055;BME280;44845;51.444;7.460;2023-03-14T06:01:37;97150.63;;;9.28;82.22
59055;BME280;44845;51.444;7.460;2023-03-14T06:04:02;97147.25;;;9.26;82.22
59055;BME280;44845;51.444;7.460;2023-03-14T06:06:28;97138.88;;;9.18;82.62
59055;BME280;44845;51.444;7.460;2023-03-14T06:08:53;97136.63;;;9.10;82.67
59055;BME280;44845;51.444;7.460;2023-03-14T06:11:19;97144.53;;;9.08;82.95
59055;BME280;44845;51.444;7.460;2023-03-14T06:13:44;97147.66;;;9.17;82.73
59055;BME280;44845;51.444;7.460;2023-03-14T06:16:09;97138.75;;;9.21;82.47
59055;BME280;44845;51.444;7.460;2023-03-14T06:18:35;97139.41;;;9.26;82.42
59055;BME280;44845;51.444;7.460;2023-03-14T06:21:00;97142.00;;;9.26;82.27
59055;BME280;44845;51.444;7.460;2023-03-14T06:23:26;97138.63;;;9.24;82.27
59055;BME280;44845;51.444;7.460;2023-03-14T06:25:51;97140.31;;;9.25;82.17
59055;BME280;44845;51.444;7.460;2023-03-14T06:28:16;97141.84;;;9.29;82.63
59055;BME280;44845;51.444;7.460;2023-03-14T06:30:42;97133.94;;;9.31;82.33
59055;BME280;44845;51.444;7.460;2023-03-14T06:33:07;97142.78;;;9.28;82.49
59055;BME280;44845;51.444;7.460;2023-03-14T06:35:33;97134.00;;;9.29;82.64
59055;BME280;44845;51.444;7.460;2023-03-14T06:37:58;97146.03;;;9.33;82.36
59055;BME280;44845;51.444;7.460;2023-03-14T06:40:23;97140.81;;;9.33;82.40
59055;BME280;44845;51.444;7.460;2023-03-14T06:42:49;97135.72;;;9.30;82.43
59055;BME280;44845;51.444;7.460;2023-03-14T06:45:14;97142.78;;;9.28;82.66
59055;BME280;44845;51.444;7.460;2023-03-14T06:47:40;97142.56;;;9.33;82.00
59055;BME280;44845;51.444;7.460;2023-03-14T06:50:06;97149.69;;;9.29;82.51
59055;BME280;44845;51.444;7.460;2023-03-14T06:52:32;97149.56;;;9.32;82.57
59055;BME280;44845;51.444;7.460;2023-03-14T06:54:58;97145.41;;;9.28;82.88
59055;BME280;44845;51.444;7.460;2023-03-14T06:57:24;97144.00;;;9.21;82.80
59055;BME280;44845;51.444;7.460;2023-03-14T06:59:49;97144.75;;;9.23;82.69
59055;BME280;44845;51.444;7.460;2023-03-14T07:02:15;97141.16;;;9.26;82.56
59055;BME280;44845;51.444;7.460;2023-03-14T07:04:40;97147.25;;;9.26;82.96
59055;BME280;44845;51.444;7.460;2023-03-14T07:07:06;97151.09;;;9.37;82.46
59055;BME280;44845;51.444;7.460;2023-03-14T07:09:32;97152.53;;;9.44;82.30
59055;BME280;44845;51.444;7.460;2023-03-14T07:11:57;97153.31;;;9.46;82.47
59055;BME280;44845;51.444;7.460;2023-03-14T07:14:23;97149.00;;;9.45;82.50
59055;BME280;44845;51.444;7.460;2023-03-14T07:16:48;97151.47;;;9.48;82.15
59055;BME280;44845;51.444;7.460;2023-03-14T07:19:14;97157.91;;;9.41;82.69
59055;BME280;44845;51.444;7.460;2023-03-14T07:21:39;97155.44;;;9.38;82.51
59055;BME280;44845;51.444;7.460;2023-03-14T07:24:04;97159.75;;;9.39;82.58
59055;BME280;44845;51.444;7.460;2023-03-14T07:26:30;97168.72;;;9.52;82.62
59055;BME280;44845;51.444;7.460;2023-03-14T07:28:55;97165.19;;;9.53;82.25
59055;BME280;44845;51.444;7.460;2023-03-14T07:31:21;97156.28;;;9.57;82.17
59055;BME280;44845;51.444;7.460;2023-03-14T07:33:46;97159.78;;;9.56;82.12
59055;BME280;44845;51.444;7.460;2023-03-14T07:36:12;97167.50;;;9.60;82.30
59055;BME280;44845;51.444;7.460;2023-03-14T07:38:37;97168.13;;;9.65;82.03
59055;BME280;44845;51.444;7.460;2023-03-14T07:41:04;97163.34;;;9.55;82.70
59055;BME280;44845;51.444;7.460;2023-03-14T07:43:29;97164.63;;;9.66;82.28
59055;BME280;44845;51.444;7.460;2023-03-14T07:45:55;97169.47;;;9.74;82.29
59055;BME280;44845;51.444;7.460;2023-03-14T07:48:20;97165.72;;;9.79;81.95
59055;BME280;44845;51.444;7.460;2023-03-14T07:50:54;97165.56;;;9.83;82.10
59055;BME280;44845;51.444;7.460;2023-03-14T07:53:20;97175.41;;;9.77;82.08
59055;BME280;44845;51.444;7.460;2023-03-14T07:55:46;97170.81;;;9.83;82.09
59055;BME280;44845;51.444;7.460;2023-03-14T07:58:12;97179.44;;;9.85;82.22
59055;BME280;44845;51.444;7.460;2023-03-14T08:00:38;97180.28;;;9.85;81.76
59055;BME280;44845;51.444;7.460;2023-03-14T08:03:03;97174.88;;;9.88;81.82
59055;BME280;44845;51.444;7.460;2023-03-14T08:05:29;97180.13;;;9.88;81.85
59055;BME280;44845;51.444;7.460;2023-03-14T08:07:54;97182.69;;;9.90;82.17
59055;BME280;44845;51.444;7.460;2023-03-14T08:10:19;97185.22;;;9.91;82.12
59055;BME280;44845;51.444;7.460;2023-03-14T08:12:55;97190.59;;;9.88;82.06
59055;BME280;44845;51.444;7.460;2023-03-14T08:15:21;97183.44;;;9.92;82.17
59055;BME280;44845;51.444;7.460;2023-03-14T08:17:47;97181.75;;;9.91;82.29
59055;BME280;44845;51.444;7.460;2023-03-14T08:20:25;97176.38;;;9.94;82.29
59055;BME280;44845;51.444;7.460;2023-03-14T08:22:51;97174.47;;;9.98;82.23
59055;BME280;44845;51.444;7.460;2023-03-14T08:25:16;97176.16;;;9.99;82.25
59055;BME280;44845;51.444;7.460;2023-03-14T08:27:43;97185.75;;;9.98;82.24
59055;BME280;44845;51.444;7.460;2023-03-14T08:30:13;97182.50;;;9.93;82.64
59055;BME280;44845;51.444;7.460;2023-03-14T08:32:39;97185.53;;;10.03;81.90
59055;BME280;44845;51.444;7.460;2023-03-14T08:35:05;97189.78;;;10.06;81.97
59055;BME280;44845;51.444;7.460;2023-03-14T08:37:32;97189.72;;;10.07;82.29
59055;BME280;44845;51.444;7.460;2023-03-14T08:39:57;97190.50;;;10.09;82.22
59055;BME280;44845;51.444;7.460;2023-03-14T08:42:23;97195.78;;;10.08;82.16
59055;BME280;44845;51.444;7.460;2023-03-14T08:44:48;97194.25;;;10.03;82.21
59055;BME280;44845;51.444;7.460;2023-03-14T08:47:14;97210.72;;;10.06;82.54
59055;BME280;44845;51.444;7.460;2023-03-14T08:49:39;97199.13;;;10.11;82.24
59055;BME280;44845;51.444;7.460;2023-03-14T08:52:05;97199.03;;;10.13;82.42
59055;BME280;44845;51.444;7.460;2023-03-14T08:54:31;97202.81;;;10.07;82.77
59055;BME280;44845;51.444;7.460;2023-03-14T08:56:57;97204.91;;;10.18;82.47
59055;BME280;44845;51.444;7.460;2023-03-14T08:59:22;97207.28;;;10.23;82.63
59055;BME280;44845;51.444;7.460;2023-03-14T09:01:48;97204.44;;;10.28;82.55
59055;BME280;44845;51.444;7.460;2023-03-14T09:04:13;97204.06;;;10.35;82.73
59055;BME280;44845;51.444;7.460;2023-03-14T09:06:39;97195.56;;;10.30;82.16
59055;BME280;44845;51.444;7.460;2023-03-14T09:09:04;97203.22;;;10.35;82.32
59055;BME280;44845;51.444;7.460;2023-03-14T09:11:30;97196.97;;;10.38;82.22
59055;BME280;44845;51.444;7.460;2023-03-14T09:13:55;97196.56;;;10.28;82.82
59055;BME280;44845;51.444;7.460;2023-03-14T09:16:21;97196.28;;;10.34;82.67
59055;BME280;44845;51.444;7.460;2023-03-14T09:18:46;97198.69;;;10.39;82.29
59055;BME280;44845;51.444;7.460;2023-03-14T09:21:11;97203.59;;;10.45;82.23
59055;BME280;44845;51.444;7.460;2023-03-14T09:23:37;97201.47;;;10.53;82.44
59055;BME280;44845;51.444;7.460;2023-03-14T09:26:04;97202.34;;;10.54;82.38
59055;BME280;44845;51.444;7.460;2023-03-14T09:28:29;97207.41;;;10.57;82.39
59055;BME280;44845;51.444;7.460;2023-03-14T09:30:55;97208.59;;;10.50;82.03
59055;BME280;44845;51.444;7.460;2023-03-14T09:33:21;97214.69;;;10.52;81.84
59055;BME280;44845;51.444;7.460;2023-03-14T09:35:46;97226.56;;;10.40;82.16
59055;BME280;44845;51.444;7.460;2023-03-14T09:38:12;97247.06;;;10.31;82.67
59055;BME280;44845;51.444;7.460;2023-03-14T09:40:38;97270.16;;;10.23;83.15
59055;BME280;44845;51.444;7.460;2023-03-14T09:43:03;97263.06;;;9.88;83.11
59055;BME280;44845;51.444;7.460;2023-03-14T09:45:34;97260.50;;;9.86;81.94
59055;BME280;44845;51.444;7.460;2023-03-14T09:48:01;97272.50;;;9.90;82.09
59055;BME280;44845;51.444;7.460;2023-03-14T09:50:33;97273.09;;;9.97;81.78
59055;BME280;44845;51.444;7.460;2023-03-14T09:53:02;97289.50;;;9.82;82.47
59055;BME280;44845;51.444;7.460;2023-03-14T09:55:28;97308.47;;;9.87;82.70
59055;BME280;44845;51.444;7.460;2023-03-14T09:58:09;97331.91;;;9.50;81.71
59055;BME280;44845;51.444;7.460;2023-03-14T10:00:35;97350.56;;;9.42;81.46
59055;BME280;44845;51.444;7.460;2023-03-14T10:05:40;97353.94;;;9.02;80.88
59055;BME280;44845;51.444;7.460;2023-03-14T10:08:06;97360.63;;;9.09;79.95
59055;BME280;44845;51.444;7.460;2023-03-14T10:10:31;97379.59;;;9.15;80.18
59055;BME280;44845;51.444;7.460;2023-03-14T10:13:05;97385.44;;;9.21;79.98
59055;BME280;44845;51.444;7.460;2023-03-14T10:15:33;97387.97;;;9.23;79.86
59055;BME280;44845;51.444;7.460;2023-03-14T10:18:00;97398.81;;;9.14;79.61
59055;BME280;44845;51.444;7.460;2023-03-14T10:20:37;97414.38;;;9.17;79.26
59055;BME280;44845;51.444;7.460;2023-03-14T10:25:39;97430.59;;;8.82;80.00
59055;BME280;44845;51.444;7.460;2023-03-14T10:28:05;97446.75;;;8.69;80.10
59055;BME280;44845;51.444;7.460;2023-03-14T10:30:43;97452.94;;;8.89;80.27
59055;BME280;44845;51.444;7.460;2023-03-14T10:33:30;97467.88;;;8.85;80.08
59055;BME280;44845;51.444;7.460;2023-03-14T10:36:20;97474.69;;;8.67;80.81
59055;BME280;44845;51.444;7.460;2023-03-14T10:38:47;97483.81;;;8.55;80.76
59055;BME280;44845;51.444;7.460;2023-03-14T10:41:16;97499.72;;;8.49;80.18
59055;BME280;44845;51.444;7.460;2023-03-14T10:43:42;97501.44;;;8.50;80.58
59055;BME280;44845;51.444;7.460;2023-03-14T10:46:13;97514.69;;;8.43;80.12
59055;BME280;44845;51.444;7.460;2023-03-14T10:48:39;97526.84;;;8.20;80.40
59055;BME280;44845;51.444;7.460;2023-03-14T10:56:14;97577.59;;;8.11;79.78
59055;BME280;44845;51.444;7.460;2023-03-14T10:58:45;97590.16;;;8.27;80.77
59055;BME280;44845;51.444;7.460;2023-03-14T11:06:36;97631.00;;;8.03;80.62
59055;BME280;44845;51.444;7.460;2023-03-14T11:09:16;97644.13;;;8.01;80.56
59055;BME280;44845;51.444;7.460;2023-03-14T11:11:46;97671.28;;;7.66;80.52
59055;BME280;44845;51.444;7.460;2023-03-14T11:14:20;97679.19;;;7.35;79.33
59055;BME280;44845;51.444;7.460;2023-03-14T11:19:31;97697.25;;;7.41;78.09
59055;BME280;44845;51.444;7.460;2023-03-14T11:22:16;97731.88;;;7.46;77.84
59055;BME280;44845;51.444;7.460;2023-03-14T11:25:03;97741.66;;;7.68;79.08
59055;BME280;44845;51.444;7.460;2023-03-14T11:28:15;97759.94;;;7.68;78.89
59055;BME280;44845;51.444;7.460;2023-03-14T11:33:34;97768.66;;;7.37;77.22
59055;BME280;44845;51.444;7.460;2023-03-14T11:38:39;97796.16;;;7.15;78.04
59055;BME280;44845;51.444;7.460;2023-03-14T11:41:12;97810.03;;;7.17;77.52
59055;BME280;44845;51.444;7.460;2023-03-14T11:43:40;97815.28;;;7.16;76.24
59055;BME280;44845;51.444;7.460;2023-03-14T11:46:16;97834.56;;;7.08;74.63
59055;BME280;44845;51.444;7.460;2023-03-14T11:51:27;97853.72;;;7.07;73.25
59055;BME280;44845;51.444;7.460;2023-03-14T11:53:58;97854.91;;;6.95;73.47
59055;BME280;44845;51.444;7.460;2023-03-14T11:56:49;97866.38;;;6.88;73.37
59055;BME280;44845;51.444;7.460;2023-03-14T11:59:24;97869.47;;;6.66;74.14
59055;BME280;44845;51.444;7.460;2023-03-14T12:02:00;97873.31;;;6.51;75.78
59055;BME280;44845;51.444;7.460;2023-03-14T12:07:29;97915.00;;;6.51;73.05
59055;BME280;44845;51.444;7.460;2023-03-14T12:09:58;97914.41;;;6.38;72.31
59055;BME280;44845;51.444;7.460;2023-03-14T12:12:26;97922.03;;;6.46;73.54
59055;BME280;44845;51.444;7.460;2023-03-14T12:14:55;97932.78;;;6.30;72.75
59055;BME280;44845;51.444;7.460;2023-03-14T12:17:25;97946.50;;;6.38;73.60
59055;BME280;44845;51.444;7.460;2023-03-14T12:20:03;97951.63;;;6.43;73.76
59055;BME280;44845;51.444;7.460;2023-03-14T12:22:34;97964.31;;;6.57;73.28
59055;BME280;44845;51.444;7.460;2023-03-14T12:25:15;97973.06;;;6.56;72.94
59055;BME280;44845;51.444;7.460;2023-03-14T12:27:47;97990.19;;;6.24;71.46
59055;BME280;44845;51.444;7.460;2023-03-14T12:30:29;97996.63;;;6.02;72.68
59055;BME280;44845;51.444;7.460;2023-03-14T12:35:36;98004.66;;;5.91;71.94
59055;BME280;44845;51.444;7.460;2023-03-14T12:38:04;98010.50;;;6.04;72.27
59055;BME280;44845;51.444;7.460;2023-03-14T12:40:39;98009.25;;;6.26;72.15
59055;BME280;44845;51.444;7.460;2023-03-14T12:43:29;98017.38;;;6.53;72.48
59055;BME280;44845;51.444;7.460;2023-03-14T12:48:44;98025.56;;;6.77;71.11
59055;BME280;44845;51.444;7.460;2023-03-14T12:51:16;98020.41;;;6.74;71.34
59055;BME280;44845;51.444;7.460;2023-03-14T12:59:38;98043.72;;;7.58;72.16
59055;BME280;44845;51.444;7.460;2023-03-14T13:04:36;98064.69;;;7.53;70.63
59055;BME280;44845;51.444;7.460;2023-03-14T13:07:12;98062.59;;;7.68;72.40
59055;BME280;44845;51.444;7.460;2023-03-14T13:15:38;98077.22;;;7.75;70.47
59055;BME280;44845;51.444;7.460;2023-03-14T13:18:23;98092.53;;;7.53;71.17
59055;BME280;44845;51.444;7.460;2023-03-14T13:20:54;98112.41;;;6.76;71.72
59055;BME280;44845;51.444;7.460;2023-03-14T13:23:24;98131.84;;;6.59;73.17
59055;BME280;44845;51.444;7.460;2023-03-14T13:25:50;98145.09;;;6.48;73.72
59055;BME280;44845;51.444;7.460;2023-03-14T13:28:16;98146.28;;;6.30;75.04
59055;BME280;44845;51.444;7.460;2023-03-14T13:30:44;98166.31;;;6.25;74.92
59055;BME280;44845;51.444;7.460;2023-03-14T13:33:21;98157.16;;;6.02;74.75
59055;BME280;44845;51.444;7.460;2023-03-14T13:35:49;98163.63;;;6.31;73.31
59055;BME280;44845;51.444;7.460;2023-03-14T13:38:22;98164.34;;;6.39;74.13
59055;BME280;44845;51.444;7.460;2023-03-14T13:40:49;98172.91;;;6.45;74.61
59055;BME280;44845;51.444;7.460;2023-03-14T13:43:23;98180.16;;;6.76;74.41
59055;BME280;44845;51.444;7.460;2023-03-14T13:48:28;98205.69;;;7.04;76.30
59055;BME280;44845;51.444;7.460;2023-03-14T13:50:58;98214.03;;;6.78;75.89
59055;BME280;44845;51.444;7.460;2023-03-14T13:53:24;98236.75;;;6.69;74.63
59055;BME280;44845;51.444;7.460;2023-03-14T13:55:51;98242.34;;;6.47;72.31
59055;BME280;44845;51.444;7.460;2023-03-14T13:58:28;98236.53;;;6.31;72.74
59055;BME280;44845;51.444;7.460;2023-03-14T14:01:00;98245.41;;;6.19;69.98
59055;BME280;44845;51.444;7.460;2023-03-14T14:03:27;98248.94;;;6.13;70.95
59055;BME280;44845;51.444;7.460;2023-03-14T14:05:55;98247.56;;;6.46;72.59